createdAt,value
2019-03-01T00:01:21.780Z,57.70
2019-03-01T00:04:16.323Z,58.00
2019-03-01T00:07:39.173Z,58.40
2019-03-01T00:11:10.023Z,58.80
2019-03-01T00:14:46.408Z,59.00
2019-03-01T00:18:00.488Z,59.50
2019-03-01T00:21:11.979Z,60.10
2019-03-01T00:24:39.657Z,60.50
2019-03-01T00:28:04.322Z,60.90
2019-03-01T00:31:25.917Z,61.20
2019-03-01T00:34:17.260Z,61.90
2019-03-01T00:37:39.749Z,62.00
2019-03-01T00:40:24.505Z,62.10
2019-03-01T00:43:52.761Z,62.40
2019-03-01T00:46:25.172Z,62.90
2019-03-01T00:48:57.453Z,63.30
2019-03-01T00:51:30.014Z,63.60
2019-03-01T00:54:02.362Z,64.90
2019-03-01T00:56:34.822Z,64.40
2019-03-01T00:59:07.172Z,64.50
2019-03-01T01:01:39.518Z,64.50
2019-03-01T01:04:12.250Z,64.90
2019-03-01T01:06:44.797Z,64.80
2019-03-01T01:09:17.177Z,64.50
2019-03-01T01:11:49.566Z,64.80
2019-03-01T01:14:22.037Z,65.00
2019-03-01T01:16:54.440Z,64.80
2019-03-01T01:19:26.803Z,65.40
2019-03-01T01:21:59.351Z,65.90
2019-03-01T01:24:32.000Z,66.40
2019-03-01T01:27:04.406Z,66.90
2019-03-01T01:29:36.839Z,68.30
2019-03-01T01:32:09.294Z,68.90
2019-03-01T01:34:41.936Z,70.00
2019-03-01T01:37:14.312Z,70.40
2019-03-01T01:39:46.781Z,71.50
2019-03-01T01:42:20.120Z,71.80
2019-03-01T01:44:52.379Z,72.70
2019-03-01T01:47:25.556Z,73.70
2019-03-01T01:49:58.020Z,74.50
2019-03-01T01:52:30.339Z,75.50
2019-03-01T01:55:02.663Z,76.30
2019-03-01T01:57:35.467Z,76.70
2019-03-01T02:00:09.180Z,77.50
2019-03-01T02:02:42.020Z,77.60
2019-03-01T02:05:14.433Z,77.80
2019-03-01T02:07:46.830Z,78.90
2019-03-01T02:10:19.345Z,80.60
2019-03-01T02:12:52.093Z,82.90
2019-03-01T02:15:24.565Z,83.30
2019-03-01T02:17:57.179Z,84.50
2019-03-01T02:20:29.763Z,86.00
2019-03-01T02:23:02.131Z,91.40
2019-03-01T02:25:34.727Z,92.10
2019-03-01T02:28:07.329Z,93.30
2019-03-01T02:30:40.107Z,95.50
2019-03-01T02:33:12.719Z,96.30
2019-03-01T02:35:45.234Z,96.80
2019-03-01T02:38:17.555Z,98.50
2019-03-01T02:40:49.792Z,99.80
2019-03-01T02:43:22.389Z,99.90
2019-03-01T02:45:54.672Z,99.90
2019-03-01T02:48:27.216Z,99.90
2019-03-01T02:50:59.516Z,99.90
2019-03-01T02:53:32.072Z,99.90
2019-03-01T02:56:04.460Z,99.90
2019-03-01T02:58:36.940Z,99.90
2019-03-01T03:01:09.503Z,99.90
2019-03-01T03:03:41.953Z,99.90
2019-03-01T03:06:23.189Z,99.90
2019-03-01T03:08:55.804Z,99.90
2019-03-01T03:11:28.152Z,99.90
2019-03-01T03:14:00.550Z,99.90
2019-03-01T03:16:33.020Z,99.90
2019-03-01T03:19:05.327Z,99.90
2019-03-01T03:21:38.111Z,99.90
2019-03-01T03:24:10.412Z,99.90
2019-03-01T03:26:42.811Z,99.90
2019-03-01T03:29:15.169Z,99.90
2019-03-01T03:31:47.586Z,99.90
2019-03-01T03:34:20.345Z,99.90
2019-03-01T03:36:52.802Z,99.90
2019-03-01T03:39:25.159Z,99.90
2019-03-01T03:41:57.745Z,99.90
2019-03-01T03:44:30.085Z,99.90
2019-03-01T03:47:02.535Z,99.90
2019-03-01T03:49:35.109Z,99.90
2019-03-01T03:52:07.628Z,99.90
2019-03-01T03:54:40.087Z,99.90
2019-03-01T03:57:12.742Z,99.90
2019-03-01T03:59:45.056Z,99.90
2019-03-01T04:02:17.752Z,99.90
2019-03-01T04:04:50.203Z,99.90
2019-03-01T04:07:22.982Z,99.90
2019-03-01T04:09:55.525Z,99.90
2019-03-01T04:12:27.969Z,99.90
2019-03-01T04:15:00.579Z,99.90
2019-03-01T04:17:32.859Z,99.90
2019-03-01T04:20:06.343Z,99.90
2019-03-01T04:22:38.770Z,99.90
2019-03-01T04:25:11.398Z,99.90
2019-03-01T04:27:44.150Z,99.90
2019-03-01T04:30:18.162Z,99.90
2019-03-01T04:32:50.741Z,99.90
2019-03-01T04:35:22.735Z,99.90
2019-03-01T04:37:55.102Z,99.90
2019-03-01T04:40:27.581Z,99.90
2019-03-01T04:43:00.105Z,99.90
2019-03-01T04:45:32.794Z,99.90
2019-03-01T04:48:05.159Z,99.90
2019-03-01T04:50:37.751Z,99.90
2019-03-01T04:53:10.099Z,99.90
2019-03-01T04:55:43.797Z,99.90
2019-03-01T04:58:16.374Z,99.90
2019-03-01T05:00:48.815Z,99.90
2019-03-01T05:03:21.305Z,99.90
2019-03-01T05:05:53.826Z,99.90
2019-03-01T05:08:26.212Z,99.90
2019-03-01T05:10:58.567Z,99.90
2019-03-01T05:13:30.969Z,99.90
2019-03-01T05:16:03.378Z,99.90
2019-03-01T05:18:35.864Z,99.90
2019-03-01T05:21:08.514Z,99.90
2019-03-01T05:23:40.921Z,99.90
2019-03-01T05:26:13.449Z,99.90
2019-03-01T05:28:45.770Z,99.90
2019-03-01T05:31:18.440Z,99.90
2019-03-01T05:33:50.803Z,99.90
2019-03-01T05:36:23.484Z,99.90
2019-03-01T05:38:55.991Z,99.90
2019-03-01T05:41:28.445Z,99.90
2019-03-01T05:44:00.981Z,99.90
2019-03-01T05:46:33.792Z,99.90
2019-03-01T05:49:06.425Z,99.90
2019-03-01T05:51:39.080Z,99.90
2019-03-01T05:54:11.532Z,99.90
2019-03-01T05:56:43.736Z,99.90
2019-03-01T05:59:19.671Z,99.90
2019-03-01T06:03:02.390Z,99.90
2019-03-01T06:05:40.851Z,99.90
2019-03-01T06:08:54.639Z,99.90
2019-03-01T06:11:41.550Z,99.90
2019-03-01T06:15:18.261Z,99.90
2019-03-01T06:18:39.614Z,99.90
2019-03-01T06:21:56.409Z,99.90
2019-03-01T06:24:53.381Z,99.90
2019-03-01T06:27:50.523Z,99.90
2019-03-01T06:31:26.353Z,99.90
2019-03-01T06:34:27.801Z,99.90
2019-03-01T06:37:58.716Z,99.90
2019-03-01T06:41:30.039Z,99.90
2019-03-01T06:44:58.510Z,99.90
2019-03-01T06:47:43.587Z,99.90
2019-03-01T06:50:31.293Z,99.10
2019-03-01T06:53:03.953Z,98.40
2019-03-01T06:55:51.522Z,96.30
2019-03-01T06:58:30.181Z,94.90
2019-03-01T07:01:20.238Z,93.90
2019-03-01T07:04:11.570Z,92.80
2019-03-01T07:06:44.115Z,91.90
2019-03-01T07:09:16.632Z,91.10
2019-03-01T07:11:49.111Z,90.30
2019-03-01T07:14:21.637Z,89.60
2019-03-01T07:16:53.961Z,88.90
2019-03-01T07:19:26.849Z,85.00
2019-03-01T07:21:59.186Z,84.90
2019-03-01T07:24:31.562Z,83.00
2019-03-01T07:27:03.979Z,81.70
2019-03-01T07:29:36.447Z,81.00
2019-03-01T07:32:08.955Z,82.20
2019-03-01T07:34:41.496Z,83.30
2019-03-01T07:37:14.230Z,83.00
2019-03-01T07:39:46.917Z,81.50
2019-03-01T07:42:19.334Z,80.30
2019-03-01T07:44:51.693Z,77.30
2019-03-01T07:47:24.138Z,76.30
2019-03-01T07:49:57.058Z,77.20
2019-03-01T07:52:29.699Z,73.70
2019-03-01T07:55:02.139Z,70.70
2019-03-01T07:57:34.853Z,66.20
2019-03-01T08:00:10.834Z,62.60
2019-03-01T08:02:45.751Z,62.30
2019-03-01T08:05:18.430Z,64.20
2019-03-01T08:07:56.190Z,64.50
2019-03-01T08:10:25.051Z,63.40
2019-03-01T08:12:57.795Z,60.50
2019-03-01T08:15:30.137Z,58.60
2019-03-01T08:18:04.697Z,57.60
2019-03-01T08:20:36.785Z,56.50
2019-03-01T08:23:09.175Z,56.10
2019-03-01T08:25:41.660Z,56.40
2019-03-01T08:28:14.130Z,58.20
2019-03-01T08:30:46.917Z,60.40
2019-03-01T08:33:19.573Z,62.30
2019-03-01T08:35:52.165Z,62.60
2019-03-01T08:38:25.448Z,63.70
2019-03-01T08:40:58.961Z,64.00
2019-03-01T08:43:31.493Z,65.50
2019-03-01T08:46:14.892Z,66.10
2019-03-01T08:48:47.389Z,67.00
2019-03-01T08:51:22.601Z,67.80
2019-03-01T08:53:54.259Z,68.20
2019-03-01T08:56:26.970Z,69.30
2019-03-01T08:58:59.444Z,70.00
2019-03-01T09:01:31.891Z,71.40
2019-03-01T09:04:09.027Z,71.60
2019-03-01T09:06:41.886Z,73.50
2019-03-01T09:09:17.696Z,72.00
2019-03-01T09:11:48.496Z,71.50
2019-03-01T09:14:22.765Z,72.10
2019-03-01T09:16:55.298Z,72.50
2019-03-01T09:19:27.577Z,73.00
2019-03-01T09:22:00.043Z,72.00
2019-03-01T09:24:32.471Z,71.10
2019-03-01T09:27:05.089Z,68.80
2019-03-01T09:29:41.543Z,68.50
2019-03-01T09:32:11.839Z,67.20
2019-03-01T09:34:46.433Z,66.40
2019-03-01T09:37:18.753Z,63.50
2019-03-01T09:39:53.641Z,60.40
2019-03-01T09:42:25.210Z,58.60
2019-03-01T09:44:57.532Z,57.40
2019-03-01T09:47:30.055Z,56.20
2019-03-01T09:50:02.668Z,54.40
2019-03-01T09:52:36.386Z,54.00
2019-03-01T09:55:09.227Z,54.00
2019-03-01T09:57:41.674Z,53.00
2019-03-01T10:00:15.642Z,53.60
2019-03-01T10:02:48.269Z,54.50
2019-03-01T10:05:20.650Z,53.80
2019-03-01T10:07:53.023Z,54.10
2019-03-01T10:10:28.046Z,51.30
2019-03-01T10:13:00.529Z,51.10
2019-03-01T10:15:33.272Z,51.80
2019-03-01T10:18:06.043Z,51.20
2019-03-01T10:20:38.738Z,50.00
2019-03-01T10:23:11.102Z,51.00
2019-03-01T10:25:43.786Z,52.00
2019-03-01T10:28:16.454Z,52.80
2019-03-01T10:30:48.872Z,52.40
2019-03-01T10:33:21.734Z,52.80
2019-03-01T10:35:54.306Z,53.60
2019-03-01T10:38:26.654Z,53.10
2019-03-01T10:40:59.171Z,53.40
2019-03-01T10:43:31.869Z,53.00
2019-03-01T10:46:04.484Z,54.80
2019-03-01T10:48:37.057Z,55.60
2019-03-01T10:51:09.770Z,56.80
2019-03-01T10:53:42.419Z,55.70
2019-03-01T10:56:15.267Z,54.50
2019-03-01T10:58:47.726Z,53.60
2019-03-01T11:01:20.348Z,55.00
2019-03-01T11:03:52.865Z,54.70
2019-03-01T11:06:25.748Z,55.70
2019-03-01T11:08:58.608Z,55.70
2019-03-01T11:11:31.290Z,55.70
2019-03-01T11:14:03.766Z,54.70
2019-03-01T11:16:36.337Z,54.00
2019-03-01T11:19:08.929Z,54.50
2019-03-01T11:21:41.429Z,55.00
2019-03-01T11:24:13.730Z,55.60
2019-03-01T11:26:46.335Z,55.00
2019-03-01T11:29:18.882Z,54.70
2019-03-01T11:31:51.216Z,54.70
2019-03-01T11:34:23.800Z,54.50
2019-03-01T11:36:56.455Z,55.40
2019-03-01T11:39:29.179Z,55.80
2019-03-01T11:42:01.718Z,56.50
2019-03-01T11:44:35.110Z,57.90
2019-03-01T11:47:07.817Z,58.30
2019-03-01T11:49:40.276Z,58.10
2019-03-01T11:52:13.025Z,58.80
2019-03-01T11:54:45.558Z,59.30
2019-03-01T11:57:18.271Z,59.20
2019-03-01T11:59:50.663Z,60.00
2019-03-01T12:02:23.233Z,61.50
2019-03-01T12:04:55.601Z,63.60
2019-03-01T12:07:28.227Z,60.60
2019-03-01T12:10:00.676Z,61.20
2019-03-01T12:12:33.310Z,62.00
2019-03-01T12:15:06.267Z,61.30
2019-03-01T12:17:38.903Z,61.20
2019-03-01T12:20:14.117Z,61.90
2019-03-01T12:22:46.506Z,63.60
2019-03-01T12:25:19.074Z,63.10
2019-03-01T12:27:51.520Z,63.10
2019-03-01T12:30:24.580Z,63.50
2019-03-01T12:32:57.081Z,64.30
2019-03-01T12:35:29.692Z,64.00
2019-03-01T12:38:02.430Z,64.80
2019-03-01T12:40:34.887Z,65.20
2019-03-01T12:43:07.424Z,66.60
2019-03-01T12:45:39.765Z,66.50
2019-03-01T12:48:12.427Z,66.30
2019-03-01T12:50:44.937Z,66.50
2019-03-01T12:53:17.563Z,66.70
2019-03-01T12:55:49.965Z,67.10
2019-03-01T12:58:22.333Z,68.00
2019-03-01T13:00:54.913Z,67.80
2019-03-01T13:03:27.269Z,68.00
2019-03-01T13:06:00.675Z,68.50
2019-03-01T13:08:33.154Z,68.90
2019-03-01T13:11:06.097Z,69.90
2019-03-01T13:13:39.337Z,69.60
2019-03-01T13:16:11.785Z,69.40
2019-03-01T13:18:47.772Z,69.70
2019-03-01T13:21:19.312Z,71.20
2019-03-01T13:23:51.849Z,70.00
2019-03-01T13:26:24.579Z,69.80
2019-03-01T13:28:57.137Z,70.10
2019-03-01T13:31:29.567Z,70.50
2019-03-01T13:34:02.293Z,71.50
2019-03-01T13:36:36.236Z,72.30
2019-03-01T13:39:11.253Z,72.40
2019-03-01T13:41:43.865Z,72.90
2019-03-01T13:44:16.571Z,73.40
2019-03-01T13:46:49.080Z,73.60
2019-03-01T13:49:21.712Z,74.70
2019-03-01T13:51:54.431Z,76.80
2019-03-01T13:54:26.962Z,78.70
2019-03-01T13:56:59.536Z,81.80
2019-03-01T13:59:32.032Z,84.50
2019-03-01T14:02:07.535Z,87.30
2019-03-01T14:04:40.384Z,85.70
2019-03-01T14:07:13.208Z,86.30
2019-03-01T14:09:45.999Z,86.30
2019-03-01T14:12:18.554Z,86.70
2019-03-01T14:14:51.173Z,87.00
2019-03-01T14:17:24.575Z,86.50
2019-03-01T14:19:57.391Z,86.00
2019-03-01T14:22:30.097Z,87.60
2019-03-01T14:25:05.215Z,86.90
2019-03-01T14:27:37.182Z,85.70
2019-03-01T14:30:13.341Z,87.20
2019-03-01T14:32:45.812Z,87.70
2019-03-01T14:35:20.541Z,86.60
2019-03-01T14:37:55.353Z,86.70
2019-03-01T14:40:26.717Z,86.40
2019-03-01T14:42:59.586Z,86.20
2019-03-01T14:45:32.254Z,86.60
2019-03-01T14:48:08.835Z,86.40
2019-03-01T14:50:39.169Z,86.30
2019-03-01T14:53:12.025Z,86.80
2019-03-01T14:55:49.421Z,87.60
2019-03-01T14:58:34.261Z,89.20
2019-03-01T15:01:42.733Z,89.00
2019-03-01T15:04:15.263Z,89.00
2019-03-01T15:06:51.410Z,89.50
2019-03-01T15:09:23.649Z,90.00
2019-03-01T15:11:55.998Z,90.00
2019-03-01T15:14:28.642Z,90.30
2019-03-01T15:17:01.471Z,90.00
2019-03-01T15:19:33.861Z,90.20
2019-03-01T15:22:06.261Z,90.10
2019-03-01T15:24:38.999Z,90.40
2019-03-01T15:27:11.370Z,90.60
2019-03-01T15:29:43.907Z,90.70
2019-03-01T15:32:16.400Z,90.50
2019-03-01T15:34:48.914Z,90.80
2019-03-01T15:37:21.301Z,90.90
2019-03-01T15:39:54.301Z,91.60
2019-03-01T15:42:27.640Z,92.40
2019-03-01T15:45:01.720Z,93.10
2019-03-01T15:47:34.670Z,93.70
2019-03-01T15:50:08.872Z,94.20
2019-03-01T15:52:41.481Z,94.50
2019-03-01T15:55:14.193Z,95.00
2019-03-01T15:57:46.591Z,94.90
2019-03-01T16:00:19.928Z,95.40
2019-03-01T16:02:53.343Z,95.80
2019-03-01T16:05:26.535Z,95.70
2019-03-01T16:07:59.091Z,96.00
2019-03-01T16:10:32.997Z,96.40
2019-03-01T16:13:08.265Z,96.30
2019-03-01T16:15:39.881Z,96.40
2019-03-01T16:18:12.512Z,96.10
2019-03-01T16:20:47.150Z,96.20
2019-03-01T16:23:19.496Z,96.50
2019-03-01T16:25:53.175Z,97.40
2019-03-01T16:28:27.427Z,97.50
2019-03-01T16:31:00.519Z,97.50
2019-03-01T16:33:32.759Z,97.50
2019-03-01T16:36:09.809Z,98.10
2019-03-01T16:38:47.633Z,98.30
2019-03-01T16:41:16.197Z,97.80
2019-03-01T16:43:48.998Z,97.70
2019-03-01T16:46:21.386Z,98.30
2019-03-01T16:48:53.956Z,98.30
2019-03-01T16:51:26.571Z,98.40
2019-03-01T16:53:59.098Z,97.70
2019-03-01T16:56:34.639Z,97.60
2019-03-01T16:59:07.282Z,97.80
2019-03-01T17:01:40.715Z,97.70
2019-03-01T17:04:13.550Z,98.00
2019-03-01T17:06:49.291Z,98.60
2019-03-01T17:09:20.268Z,98.90
2019-03-01T17:11:52.819Z,98.50
2019-03-01T17:14:25.589Z,98.50
2019-03-01T17:16:59.589Z,98.50
2019-03-01T17:19:32.300Z,98.90
2019-03-01T17:22:04.799Z,98.70
2019-03-01T17:24:37.453Z,99.20
2019-03-01T17:27:09.858Z,99.50
2019-03-01T17:29:42.395Z,99.60
2019-03-01T17:32:14.796Z,99.80
2019-03-01T17:34:47.442Z,99.90
2019-03-01T17:37:19.926Z,99.90
2019-03-01T17:39:53.183Z,99.90
2019-03-01T17:42:27.048Z,99.90
2019-03-01T17:44:59.483Z,99.90
2019-03-01T17:47:32.628Z,99.90
2019-03-01T17:50:08.808Z,99.90
2019-03-01T17:52:39.942Z,99.90
2019-03-01T17:55:12.868Z,99.90
2019-03-01T17:57:45.585Z,99.90
2019-03-01T18:00:25.384Z,99.90
2019-03-01T18:02:57.438Z,99.90
2019-03-01T18:05:30.024Z,99.90
2019-03-01T18:08:03.780Z,99.90
2019-03-01T18:10:38.124Z,99.90
2019-03-01T18:13:11.323Z,99.90
2019-03-01T18:15:45.140Z,99.90
2019-03-01T18:18:17.950Z,99.90
2019-03-01T18:20:50.616Z,99.90
2019-03-01T18:23:23.332Z,99.90
2019-03-01T18:25:59.572Z,99.90
2019-03-01T18:28:31.043Z,99.90
2019-03-01T18:31:03.441Z,99.90
2019-03-01T18:33:35.980Z,99.90
2019-03-01T18:36:08.648Z,99.90
2019-03-01T18:38:41.145Z,99.90
2019-03-01T18:41:13.690Z,99.90
2019-03-01T18:43:49.269Z,99.90
2019-03-01T18:46:21.921Z,99.90
2019-03-01T18:48:54.315Z,99.90
2019-03-01T18:51:26.718Z,99.90
2019-03-01T18:54:00.637Z,99.90
2019-03-01T18:56:33.794Z,99.90
2019-03-01T18:59:06.224Z,99.90
2019-03-01T19:01:38.734Z,99.90
2019-03-01T19:04:13.002Z,99.90
2019-03-01T19:06:48.416Z,99.90
2019-03-01T19:09:19.958Z,99.90
2019-03-01T19:11:52.286Z,99.90
2019-03-01T19:14:24.729Z,99.90
2019-03-01T19:16:57.138Z,99.90
2019-03-01T19:19:30.692Z,99.90
2019-03-01T19:22:03.364Z,99.90
2019-03-01T19:24:42.864Z,99.90
2019-03-01T19:27:15.582Z,99.90
2019-03-01T19:29:44.585Z,99.90
2019-03-01T19:32:17.213Z,99.90
2019-03-01T19:34:52.768Z,99.90
2019-03-01T19:37:24.151Z,99.90
2019-03-01T19:39:56.663Z,99.90
2019-03-01T19:42:33.143Z,99.90
2019-03-01T19:45:04.743Z,99.90
2019-03-01T19:47:38.433Z,99.90
2019-03-01T19:50:14.737Z,99.90
2019-03-01T19:52:50.391Z,99.90
2019-03-01T19:55:21.209Z,99.90
2019-03-01T19:57:54.565Z,99.90
2019-03-01T20:00:27.579Z,99.90
2019-03-01T20:03:00.336Z,99.90
2019-03-01T20:05:33.177Z,99.90
2019-03-01T20:08:06.262Z,99.90
2019-03-01T20:10:38.701Z,99.90
2019-03-01T20:13:16.416Z,99.90
2019-03-01T20:15:49.282Z,99.90
2019-03-01T20:18:22.010Z,99.90
2019-03-01T20:20:55.106Z,99.90
2019-03-01T20:23:29.463Z,99.90
2019-03-01T20:26:01.973Z,99.90
2019-03-01T20:28:36.203Z,99.90
2019-03-01T20:31:08.759Z,99.90
2019-03-01T20:33:41.522Z,99.90
2019-03-01T20:36:17.755Z,99.90
2019-03-01T20:38:48.571Z,99.90
2019-03-01T20:41:21.034Z,99.90
2019-03-01T20:43:53.681Z,99.90
2019-03-01T20:46:26.339Z,99.90
2019-03-01T20:49:00.712Z,99.90
2019-03-01T20:51:33.766Z,99.90
2019-03-01T20:54:06.458Z,99.90
2019-03-01T20:56:38.597Z,99.90
2019-03-01T20:59:12.615Z,99.90
2019-03-01T21:01:45.609Z,99.90
2019-03-01T21:04:18.499Z,99.90
2019-03-01T21:06:51.664Z,99.90
2019-03-01T21:09:24.127Z,99.90
2019-03-01T21:11:57.843Z,99.90
2019-03-01T21:14:31.471Z,99.90
2019-03-01T21:17:04.636Z,99.90
2019-03-01T21:19:37.424Z,99.90
2019-03-01T21:22:10.233Z,99.90
2019-03-01T21:24:43.866Z,99.90
2019-03-01T21:27:16.634Z,99.90
2019-03-01T21:29:50.400Z,99.90
2019-03-01T21:32:23.530Z,99.90
2019-03-01T21:35:16.793Z,99.90
2019-03-01T21:37:49.487Z,99.90
2019-03-01T21:40:22.077Z,99.90
2019-03-01T21:42:57.401Z,99.90
2019-03-01T21:45:28.861Z,99.90
2019-03-01T21:48:01.659Z,99.90
2019-03-01T21:50:34.756Z,99.90
2019-03-01T21:53:09.272Z,99.90
2019-03-01T21:55:42.867Z,99.90
2019-03-01T21:58:15.794Z,99.90
2019-03-01T22:00:49.585Z,99.90
2019-03-01T22:03:24.862Z,99.90
2019-03-01T22:05:56.667Z,99.90
2019-03-01T22:08:29.192Z,99.90
2019-03-01T22:11:01.636Z,99.90
2019-03-01T22:13:35.729Z,99.90
2019-03-01T22:16:09.032Z,99.90
2019-03-01T22:18:41.726Z,99.90
2019-03-01T22:21:16.870Z,99.90
2019-03-01T22:23:51.562Z,99.90
2019-03-01T22:26:23.904Z,99.90
2019-03-01T22:28:56.462Z,99.90
2019-03-01T22:31:28.856Z,99.90
2019-03-01T22:34:01.377Z,99.90
2019-03-01T22:36:33.805Z,99.90
2019-03-01T22:39:07.452Z,99.90
2019-03-01T22:41:40.459Z,99.90
2019-03-01T22:44:13.035Z,99.90
2019-03-01T22:46:45.681Z,99.90
2019-03-01T22:49:18.200Z,99.90
2019-03-01T22:51:52.912Z,99.90
2019-03-01T22:54:25.419Z,99.90
2019-03-01T22:56:57.933Z,99.90
2019-03-01T22:59:30.471Z,99.90
2019-03-01T23:02:08.044Z,99.90
2019-03-01T23:04:40.610Z,99.90
2019-03-01T23:07:13.047Z,99.90
2019-03-01T23:09:46.551Z,99.90
2019-03-01T23:12:20.075Z,99.90
2019-03-01T23:14:52.563Z,99.90
2019-03-01T23:17:27.562Z,99.90
2019-03-01T23:19:59.213Z,99.90
2019-03-01T23:22:50.525Z,99.90
2019-03-01T23:25:23.295Z,99.90
2019-03-01T23:27:56.089Z,99.90
2019-03-01T23:30:29.052Z,99.90
2019-03-01T23:33:02.012Z,99.90
2019-03-01T23:35:34.434Z,99.90
2019-03-01T23:38:06.900Z,99.90
2019-03-01T23:40:39.165Z,99.90
2019-03-01T23:43:11.588Z,99.90
2019-03-01T23:45:44.061Z,99.90
2019-03-01T23:48:16.522Z,99.90
2019-03-01T23:50:48.988Z,99.90
2019-03-01T23:53:21.627Z,99.90
2019-03-01T23:55:54.686Z,99.90
2019-03-01T23:58:28.576Z,99.90
